Time;durP1;ratioP1;P1;durP2;ratioP2;P2;SDS_P1;SDS_P2;PMS_P1;PMS_P2;Temp;Humidity;BMP_temperature;BMP_pressure;BME280_temperature;BME280_humidity;BME280_pressure;Samples;Min_cycle;Max_cycle;Signal;HPM_P1;HPM_P2
2021/12/30 00:00:57;;;;;;;6.10;2.15;;;21.60;44.50;;;;;;5056173;28;20060;-53
2021/12/30 00:03:23;;;;;;;6.25;2.50;;;21.60;44.50;;;;;;5039349;28;20076;-56
2021/12/30 00:05:50;;;;;;;5.07;1.90;;;21.60;44.50;;;;;;5055672;28;20375;-57
2021/12/30 00:08:16;;;;;;;6.07;2.22;;;21.60;44.50;;;;;;5053747;28;20025;-55
2021/12/30 00:10:42;;;;;;;5.40;2.47;;;21.60;44.50;;;;;;5042931;28;20033;-58
2021/12/30 00:13:08;;;;;;;4.47;1.70;;;21.60;44.60;;;;;;5055301;28;20124;-51
2021/12/30 00:15:35;;;;;;;5.13;2.20;;;21.60;44.60;;;;;;5036110;28;20485;-53
2021/12/30 00:18:02;;;;;;;5.55;2.65;;;21.60;44.60;;;;;;5049856;28;20024;-55
2021/12/30 00:20:28;;;;;;;5.75;2.22;;;21.60;44.60;;;;;;5054988;28;20029;-55
2021/12/30 00:22:54;;;;;;;5.47;2.05;;;21.60;44.60;;;;;;5056119;28;20021;-56
2021/12/30 00:25:20;;;;;;;6.38;2.30;;;21.60;44.70;;;;;;5055756;28;20033;-53
2021/12/30 00:27:46;;;;;;;5.63;2.00;;;21.60;44.70;;;;;;5055989;28;20029;-57
2021/12/30 00:30:12;;;;;;;4.25;1.90;;;21.60;44.70;;;;;;5040765;28;20025;-55
2021/12/30 00:32:39;;;;;;;6.88;2.40;;;21.50;44.70;;;;;;5035835;28;20036;-53
2021/12/30 00:35:05;;;;;;;4.68;2.10;;;21.50;44.70;;;;;;5049835;28;20029;-55
2021/12/30 00:37:31;;;;;;;4.63;2.33;;;21.50;44.70;;;;;;5056144;28;20071;-53
2021/12/30 00:39:57;;;;;;;6.50;2.53;;;21.50;44.70;;;;;;5041497;28;20061;-52
2021/12/30 00:42:23;;;;;;;4.90;2.20;;;21.50;44.80;;;;;;5049436;28;20108;-56
2021/12/30 00:44:49;;;;;;;4.72;2.00;;;21.50;44.80;;;;;;5043377;28;20036;-57
2021/12/30 00:47:14;;;;;;;4.15;1.85;;;21.50;44.80;;;;;;5047436;28;20056;-56
2021/12/30 00:49:40;;;;;;;5.03;2.20;;;21.50;44.80;;;;;;5054501;28;20337;-54
2021/12/30 00:52:06;;;;;;;6.28;2.53;;;21.50;44.90;;;;;;5055779;28;20021;-55
2021/12/30 00:54:32;;;;;;;6.38;2.55;;;21.50;44.90;;;;;;5054113;28;20025;-53
2021/12/30 00:56:59;;;;;;;6.15;2.28;;;21.50;44.90;;;;;;5054932;28;20017;-52
2021/12/30 00:59:25;;;;;;;4.40;2.08;;;21.50;44.90;;;;;;5053760;28;20123;-57
2021/12/30 01:01:51;;;;;;;4.65;1.95;;;21.50;45.00;;;;;;5055040;28;20017;-52
2021/12/30 01:04:20;;;;;;;5.28;2.05;;;21.50;45.00;;;;;;5053776;28;20044;-54
2021/12/30 01:06:46;;;;;;;4.75;1.95;;;21.50;45.00;;;;;;5054844;28;20087;-48
2021/12/30 01:09:12;;;;;;;5.15;1.77;;;21.50;45.00;;;;;;5053975;28;20083;-57
2021/12/30 01:11:38;;;;;;;5.75;2.17;;;21.40;45.00;;;;;;5054726;28;20108;-55
2021/12/30 01:14:14;;;;;;;3.58;1.98;;;21.40;45.00;;;;;;5044453;28;20104;-58
2021/12/30 01:16:44;;;;;;;6.00;2.42;;;21.40;45.10;;;;;;5041125;28;20394;-56
2021/12/30 01:21:55;;;;;;;6.95;2.40;;;21.40;45.20;;;;;;5054593;28;20059;-52
2021/12/30 01:24:22;;;;;;;4.15;1.95;;;21.40;45.20;;;;;;5024945;28;20465;-59
2021/12/30 01:26:48;;;;;;;4.07;1.60;;;21.40;45.20;;;;;;5024619;28;20382;-52
2021/12/30 01:29:14;;;;;;;4.40;1.77;;;21.40;45.20;;;;;;5044547;28;20087;-52
2021/12/30 01:31:40;;;;;;;6.35;2.30;;;21.40;45.20;;;;;;5054597;28;20024;-57
2021/12/30 01:34:06;;;;;;;5.40;1.85;;;21.40;45.20;;;;;;5052579;28;20333;-59
2021/12/30 01:36:32;;;;;;;5.55;2.13;;;21.40;45.30;;;;;;5054734;28;20103;-53
2021/12/30 01:38:57;;;;;;;4.55;2.15;;;21.40;45.30;;;;;;5046542;28;20429;-52
2021/12/30 01:41:23;;;;;;;6.38;2.03;;;21.40;45.30;;;;;;5052514;28;20035;-52
2021/12/30 01:43:50;;;;;;;4.85;2.15;;;21.40;45.30;;;;;;5036834;28;20029;-55
2021/12/30 01:46:17;;;;;;;4.95;2.08;;;21.40;45.40;;;;;;5051191;28;20028;-50
2021/12/30 01:48:43;;;;;;;5.07;1.85;;;21.40;45.40;;;;;;5049638;28;20463;-57
2021/12/30 01:51:10;;;;;;;3.60;1.80;;;21.40;45.40;;;;;;5054004;28;20448;-55
2021/12/30 01:53:37;;;;;;;6.78;2.20;;;21.40;45.50;;;;;;5053526;28;20033;-55
2021/12/30 01:56:05;;;;;;;4.60;2.00;;;21.40;45.50;;;;;;5054510;28;20110;-50
2021/12/30 01:58:32;;;;;;;5.00;1.95;;;21.40;45.60;;;;;;5035686;28;20038;-52
2021/12/30 02:00:58;;;;;;;5.90;2.33;;;21.40;45.60;;;;;;5052304;28;20432;-53
2021/12/30 02:03:24;;;;;;;6.47;2.30;;;21.40;45.60;;;;;;5045445;28;20427;-53
2021/12/30 02:05:50;;;;;;;5.45;2.20;;;21.40;45.60;;;;;;5051707;28;20031;-54
2021/12/30 02:08:18;;;;;;;4.63;1.65;;;21.40;45.60;;;;;;5046743;28;20040;-54
2021/12/30 02:10:47;;;;;;;6.30;2.47;;;21.40;45.70;;;;;;5050271;28;20032;-54
2021/12/30 02:13:14;;;;;;;3.85;2.22;;;21.30;45.70;;;;;;5022687;28;20439;-50
2021/12/30 02:15:41;;;;;;;5.43;2.00;;;21.40;45.70;;;;;;5057925;28;20036;-58
2021/12/30 02:18:07;;;;;;;5.63;2.28;;;21.30;45.70;;;;;;5048177;28;20100;-51
2021/12/30 02:20:41;;;;;;;4.97;1.98;;;21.40;45.80;;;;;;5055450;28;20025;-55
2021/12/30 02:23:08;;;;;;;4.38;1.70;;;21.40;45.80;;;;;;5048045;28;20105;-57
2021/12/30 02:25:34;;;;;;;5.45;2.00;;;21.30;45.80;;;;;;5054993;28;20025;-50
2021/12/30 02:28:04;;;;;;;5.97;2.20;;;21.40;45.90;;;;;;5031252;28;20033;-54
2021/12/30 02:30:30;;;;;;;5.78;2.20;;;21.30;45.90;;;;;;5054727;28;20459;-53
2021/12/30 02:32:56;;;;;;;4.65;1.85;;;21.40;46.00;;;;;;5048878;28;20017;-51
2021/12/30 02:35:21;;;;;;;4.78;2.13;;;21.30;46.00;;;;;;5053187;28;20033;-50
2021/12/30 02:37:51;;;;;;;5.50;2.40;;;21.30;46.00;;;;;;5057507;28;20044;-57
2021/12/30 02:40:27;;;;;;;5.53;2.10;;;21.30;46.00;;;;;;5057224;28;20033;-55
2021/12/30 02:42:54;;;;;;;8.50;2.15;;;21.30;46.10;;;;;;5048806;28;20033;-55
2021/12/30 02:45:20;;;;;;;4.07;1.88;;;21.30;46.20;;;;;;5052712;28;20035;-55
2021/12/30 02:47:45;;;;;;;6.95;2.15;;;21.30;46.20;;;;;;5045035;28;20025;-56
2021/12/30 02:50:11;;;;;;;5.13;2.10;;;21.30;46.30;;;;;;5051776;28;20025;-54
2021/12/30 02:52:37;;;;;;;5.82;2.40;;;21.30;46.30;;;;;;5056785;28;20028;-57
2021/12/30 02:55:03;;;;;;;5.05;2.00;;;21.30;46.40;;;;;;5058245;28;20408;-55
2021/12/30 02:57:29;;;;;;;5.60;2.17;;;21.30;46.40;;;;;;5057159;28;20033;-55
2021/12/30 02:59:55;;;;;;;7.35;2.53;;;21.30;46.40;;;;;;5056990;28;20103;-51
2021/12/30 03:02:21;;;;;;;6.25;2.30;;;21.30;46.40;;;;;;5055876;28;20029;-56
2021/12/30 03:04:46;;;;;;;6.05;2.70;;;21.30;46.40;;;;;;5057072;28;20048;-54
2021/12/30 03:07:12;;;;;;;5.60;2.15;;;21.30;46.40;;;;;;5049531;28;20035;-56
2021/12/30 03:09:38;;;;;;;5.43;2.00;;;21.30;46.40;;;;;;5038505;28;20103;-55
2021/12/30 03:12:04;;;;;;;5.85;2.28;;;21.30;46.50;;;;;;5044278;28;20037;-57
2021/12/30 03:14:30;;;;;;;5.93;2.28;;;21.30;46.50;;;;;;5052677;28;20040;-54
2021/12/30 03:16:55;;;;;;;5.82;2.00;;;21.30;46.50;;;;;;5037285;28;20053;-51
2021/12/30 03:19:21;;;;;;;4.30;2.00;;;21.30;46.60;;;;;;5046417;28;20033;-55
2021/12/30 03:21:47;;;;;;;7.05;2.15;;;21.30;46.60;;;;;;5037220;28;20022;-51
2021/12/30 03:24:13;;;;;;;5.22;2.30;;;21.30;46.70;;;;;;5042533;28;20048;-54
2021/12/30 03:26:39;;;;;;;6.10;2.30;;;21.20;46.70;;;;;;5038890;28;20090;-51
2021/12/30 03:29:05;;;;;;;4.88;1.67;;;21.30;46.80;;;;;;5039157;28;20107;-55
2021/12/30 03:31:31;;;;;;;5.63;2.33;;;21.30;46.80;;;;;;5056898;28;20021;-51
2021/12/30 03:33:57;;;;;;;3.92;1.75;;;21.30;46.80;;;;;;5049750;28;20442;-50
2021/12/30 03:36:25;;;;;;;4.72;2.00;;;21.30;46.80;;;;;;5055626;28;20028;-55
2021/12/30 03:38:53;;;;;;;4.55;2.00;;;21.30;46.80;;;;;;5055964;28;20448;-53
2021/12/30 03:41:21;;;;;;;5.68;2.33;;;21.30;46.90;;;;;;5051227;28;20021;-56
2021/12/30 03:43:48;;;;;;;4.70;2.05;;;21.30;46.90;;;;;;5039043;28;20831;-53
2021/12/30 03:46:14;;;;;;;5.57;2.33;;;21.30;46.90;;;;;;5052202;28;20029;-51
2021/12/30 03:48:43;;;;;;;4.93;2.03;;;21.30;47.00;;;;;;5027900;28;20024;-55
2021/12/30 03:51:20;;;;;;;5.65;1.75;;;21.20;47.00;;;;;;5052614;28;20102;-52
2021/12/30 03:53:49;;;;;;;4.88;1.98;;;21.30;47.10;;;;;;5042803;28;20104;-56
2021/12/30 03:56:16;;;;;;;4.10;1.95;;;21.20;47.10;;;;;;5053253;28;20139;-54
2021/12/30 03:58:44;;;;;;;4.18;2.08;;;21.20;47.10;;;;;;5036501;28;20037;-55
2021/12/30 04:01:20;;;;;;;3.92;1.77;;;21.20;47.10;;;;;;5052204;28;20032;-52
2021/12/30 04:03:47;;;;;;;3.70;1.80;;;21.20;47.20;;;;;;5036318;28;20064;-56
2021/12/30 04:06:13;;;;;;;3.78;2.22;;;21.20;47.20;;;;;;5018831;28;20056;-55
2021/12/30 04:08:40;;;;;;;4.82;1.90;;;21.20;47.20;;;;;;5055734;28;20043;-53
2021/12/30 04:11:06;;;;;;;4.72;2.05;;;21.20;47.20;;;;;;5040359;28;20348;-52
2021/12/30 04:13:33;;;;;;;3.33;1.77;;;21.20;47.30;;;;;;5055634;28;20072;-56
2021/12/30 04:15:59;;;;;;;5.07;2.00;;;21.20;47.40;;;;;;5042239;28;20036;-57
2021/12/30 04:18:26;;;;;;;3.75;2.05;;;21.20;47.40;;;;;;5054133;28;20025;-55
2021/12/30 04:20:52;;;;;;;4.55;2.10;;;21.20;47.40;;;;;;5043116;28;20037;-54
2021/12/30 04:23:18;;;;;;;4.72;1.88;;;21.20;47.50;;;;;;5051815;28;20025;-56
2021/12/30 04:25:44;;;;;;;4.75;1.83;;;21.20;47.50;;;;;;5056120;28;20029;-53
2021/12/30 04:28:10;;;;;;;4.97;1.98;;;21.20;47.60;;;;;;5054227;28;20431;-51
2021/12/30 04:30:36;;;;;;;3.92;2.03;;;21.20;47.60;;;;;;5035911;28;20021;-57
2021/12/30 04:33:03;;;;;;;3.72;1.63;;;21.20;47.70;;;;;;5027060;28;20512;-53
2021/12/30 04:35:29;;;;;;;4.93;1.90;;;21.20;47.70;;;;;;5051145;28;20021;-57
2021/12/30 04:37:54;;;;;;;3.42;1.75;;;21.20;47.70;;;;;;5043464;28;20394;-52
2021/12/30 04:40:20;;;;;;;3.20;1.40;;;21.20;47.80;;;;;;5055673;28;20041;-51
2021/12/30 04:42:46;;;;;;;2.80;1.48;;;21.20;47.80;;;;;;5047756;28;20028;-57
2021/12/30 04:45:13;;;;;;;2.75;1.45;;;21.20;47.80;;;;;;5035477;28;20029;-57
2021/12/30 04:47:40;;;;;;;3.33;1.67;;;21.20;47.90;;;;;;5046491;28;20025;-52
2021/12/30 04:50:09;;;;;;;2.35;1.33;;;21.20;47.90;;;;;;5055577;28;20029;-57
2021/12/30 04:52:35;;;;;;;2.72;1.50;;;21.20;48.00;;;;;;5050309;28;20049;-50
2021/12/30 04:55:01;;;;;;;2.97;1.65;;;21.20;48.10;;;;;;5017989;28;20098;-54
2021/12/30 04:57:27;;;;;;;2.30;1.30;;;21.20;48.10;;;;;;5041565;28;20029;-54
2021/12/30 04:59:53;;;;;;;1.67;1.20;;;21.20;48.80;;;;;;5034950;28;20112;-52
2021/12/30 05:02:19;;;;;;;3.13;1.42;;;21.20;48.20;;;;;;5040951;28;20021;-57
2021/12/30 05:04:45;;;;;;;1.95;1.38;;;21.20;48.30;;;;;;5015520;28;20038;-52
2021/12/30 05:07:10;;;;;;;2.53;1.00;;;21.20;48.30;;;;;;5022191;28;20412;-55
2021/12/30 05:09:36;;;;;;;2.83;1.38;;;21.20;48.40;;;;;;5032475;28;20041;-54
2021/12/30 05:12:03;;;;;;;2.35;1.20;;;21.20;48.40;;;;;;5032827;28;20041;-53
2021/12/30 05:14:29;;;;;;;2.50;1.48;;;21.20;48.50;;;;;;5015922;28;20036;-56
2021/12/30 05:17:02;;;;;;;2.20;1.00;;;21.20;48.50;;;;;;5031936;28;20100;-53
2021/12/30 05:19:28;;;;;;;2.05;1.10;;;21.20;48.50;;;;;;5035056;28;20033;-52
2021/12/30 05:21:54;;;;;;;1.65;1.10;;;21.20;48.50;;;;;;5034505;28;20039;-53
2021/12/30 05:24:19;;;;;;;2.45;0.90;;;21.20;48.60;;;;;;5015154;28;20026;-52
2021/12/30 05:26:45;;;;;;;2.35;1.10;;;21.20;48.60;;;;;;5031159;28;20033;-56
2021/12/30 05:29:11;;;;;;;1.80;0.90;;;21.20;48.70;;;;;;5016624;28;20037;-52
2021/12/30 05:31:37;;;;;;;1.52;0.80;;;21.20;48.70;;;;;;5030236;28;20037;-53
2021/12/30 05:34:03;;;;;;;3.75;0.82;;;21.20;48.70;;;;;;5017980;28;20030;-50
2021/12/30 05:36:29;;;;;;;1.23;0.80;;;21.10;48.70;;;;;;5028836;28;20352;-52
2021/12/30 05:38:55;;;;;;;1.73;0.93;;;21.20;48.80;;;;;;5033948;28;20026;-52
2021/12/30 05:41:22;;;;;;;1.20;0.77;;;21.20;48.90;;;;;;5034769;28;20025;-54
2021/12/30 05:43:48;;;;;;;2.05;0.80;;;21.10;48.90;;;;;;5020158;28;20017;-52
2021/12/30 05:46:14;;;;;;;1.48;0.80;;;21.20;48.90;;;;;;5026611;28;20116;-51
2021/12/30 05:48:41;;;;;;;1.10;0.70;;;21.10;48.90;;;;;;5020829;28;20030;-53
2021/12/30 05:51:06;;;;;;;1.30;0.68;;;21.10;48.90;;;;;;5026050;28;20131;-55
2021/12/30 05:53:32;;;;;;;0.70;0.52;;;21.20;49.00;;;;;;5032735;28;20433;-51
2021/12/30 05:55:58;;;;;;;1.05;0.52;;;21.10;49.00;;;;;;5034341;28;20022;-54
2021/12/30 05:58:24;;;;;;;1.00;0.55;;;21.10;49.00;;;;;;5021665;28;20100;-52
2021/12/30 06:00:50;;;;;;;1.00;0.73;;;21.20;49.10;;;;;;5023394;28;20425;-54
2021/12/30 06:03:19;;;;;;;1.20;0.70;;;21.10;49.00;;;;;;5029940;28;20049;-55
2021/12/30 06:05:46;;;;;;;0.55;0.40;;;21.10;49.10;;;;;;5042622;28;20029;-56
2021/12/30 06:08:12;;;;;;;1.98;0.60;;;21.20;49.20;;;;;;5043473;28;20461;-52
2021/12/30 06:10:39;;;;;;;0.90;0.52;;;21.10;49.20;;;;;;5041705;28;20036;-52
2021/12/30 06:13:05;;;;;;;0.98;0.57;;;21.10;49.20;;;;;;5044347;28;20025;-57
2021/12/30 06:15:31;;;;;;;0.63;0.43;;;21.10;49.20;;;;;;5041109;28;20075;-56
2021/12/30 06:17:57;;;;;;;1.42;0.82;;;21.10;49.20;;;;;;5053255;28;20036;-54
2021/12/30 06:20:22;;;;;;;1.08;0.50;;;21.20;49.30;;;;;;5054018;28;20036;-55
2021/12/30 06:22:49;;;;;;;0.80;0.60;;;21.10;49.30;;;;;;5036805;28;20358;-57
2021/12/30 06:25:14;;;;;;;0.93;0.55;;;21.10;49.30;;;;;;5042696;28;20021;-52
2021/12/30 06:27:41;;;;;;;0.82;0.57;;;21.10;49.40;;;;;;5033593;28;20036;-55
2021/12/30 06:30:08;;;;;;;1.20;0.60;;;21.10;49.40;;;;;;5053410;28;20333;-56
2021/12/30 06:32:34;;;;;;;1.42;0.73;;;21.10;49.40;;;;;;5049885;28;20022;-52
2021/12/30 06:35:00;;;;;;;1.42;0.77;;;21.10;49.40;;;;;;5036283;28;20025;-55
2021/12/30 06:37:26;;;;;;;1.08;0.65;;;21.10;49.40;;;;;;5050389;28;20025;-53
2021/12/30 06:39:52;;;;;;;1.00;0.68;;;21.10;49.40;;;;;;5035203;28;20048;-50
2021/12/30 06:42:18;;;;;;;1.23;0.75;;;21.20;49.50;;;;;;5053499;28;20025;-55
2021/12/30 06:44:44;;;;;;;1.10;0.70;;;21.10;49.40;;;;;;5054042;28;20035;-55
2021/12/30 06:47:10;;;;;;;1.67;0.80;;;21.10;49.50;;;;;;5056490;28;20120;-55
2021/12/30 06:49:37;;;;;;;1.05;0.70;;;21.20;49.50;;;;;;5057838;28;20037;-55
2021/12/30 06:52:10;;;;;;;1.40;0.65;;;21.10;49.50;;;;;;5054425;28;20025;-54
2021/12/30 06:54:36;;;;;;;0.82;0.50;;;21.20;49.50;;;;;;5038525;28;20087;-52
2021/12/30 06:57:03;;;;;;;0.93;0.60;;;21.10;49.50;;;;;;5049626;28;20443;-52
2021/12/30 06:59:30;;;;;;;1.05;0.63;;;21.20;49.50;;;;;;5057298;28;20029;-55
2021/12/30 07:01:57;;;;;;;1.17;0.60;;;21.10;49.50;;;;;;5056975;28;20028;-48
2021/12/30 07:04:26;;;;;;;1.02;0.40;;;21.10;49.40;;;;;;5054417;28;20083;-51
2021/12/30 07:06:53;;;;;;;0.88;0.60;;;21.10;49.40;;;;;;5050734;28;20116;-51
2021/12/30 07:09:20;;;;;;;0.82;0.40;;;21.10;49.50;;;;;;5037667;28;20036;-49
2021/12/30 07:11:48;;;;;;;1.52;0.50;;;21.10;49.40;;;;;;5056306;28;20032;-52
2021/12/30 07:14:20;;;;;;;1.10;0.45;;;21.10;49.50;;;;;;5041068;28;20475;-57
2021/12/30 07:16:46;;;;;;;1.20;0.60;;;21.10;49.40;;;;;;5054910;28;20031;-52
2021/12/30 07:19:12;;;;;;;0.93;0.47;;;21.10;49.50;;;;;;5057106;28;20044;-49
2021/12/30 07:21:39;;;;;;;0.63;0.40;;;21.10;49.50;;;;;;5056160;28;20078;-53
2021/12/30 07:24:05;;;;;;;0.77;0.50;;;21.20;49.50;;;;;;5042604;28;20429;-49
2021/12/30 07:26:32;;;;;;;1.17;0.52;;;21.10;49.50;;;;;;5051937;28;20094;-53
2021/12/30 07:28:58;;;;;;;1.00;0.47;;;21.10;49.50;;;;;;5041169;28;20061;-55
2021/12/30 07:31:23;;;;;;;0.45;0.40;;;21.10;49.50;;;;;;5050690;28;20079;-50
2021/12/30 07:33:49;;;;;;;1.35;0.43;;;21.10;49.60;;;;;;5044093;28;20033;-48
2021/12/30 07:36:15;;;;;;;1.48;0.50;;;21.10;49.60;;;;;;5050142;28;20025;-52
2021/12/30 07:38:40;;;;;;;1.05;0.50;;;21.10;49.60;;;;;;5055813;28;20059;-53
2021/12/30 07:41:06;;;;;;;1.90;1.02;;;21.10;49.70;;;;;;5038298;28;20020;-53
2021/12/30 07:43:33;;;;;;;0.88;0.50;;;21.10;49.70;;;;;;5055530;28;20399;-52
2021/12/30 07:45:59;;;;;;;0.93;0.50;;;21.10;49.80;;;;;;5055337;28;20051;-52
2021/12/30 07:48:25;;;;;;;0.80;0.50;;;21.10;49.90;;;;;;5055973;28;20104;-50
2021/12/30 07:50:51;;;;;;;1.23;0.50;;;21.10;50.00;;;;;;5056951;28;20432;-55
2021/12/30 07:53:17;;;;;;;1.05;0.57;;;21.20;50.00;;;;;;5056199;28;20028;-53
2021/12/30 07:55:43;;;;;;;1.23;0.63;;;21.20;50.00;;;;;;5056065;28;20053;-50
2021/12/30 07:58:09;;;;;;;1.58;0.70;;;21.20;50.00;;;;;;5054602;28;20049;-54
2021/12/30 08:00:35;;;;;;;1.15;0.70;;;21.20;50.00;;;;;;5055686;28;20040;-52
2021/12/30 08:03:00;;;;;;;1.23;0.60;;;21.30;50.00;;;;;;5055424;28;20052;-50
2021/12/30 08:05:28;;;;;;;1.23;0.65;;;21.30;50.00;;;;;;5056920;28;20407;-56
2021/12/30 08:07:54;;;;;;;1.02;0.75;;;21.40;50.00;;;;;;5056547;28;20017;-56
2021/12/30 08:10:22;;;;;;;0.95;0.68;;;21.40;49.90;;;;;;5056147;28;20029;-52
2021/12/30 08:12:50;;;;;;;1.02;0.77;;;21.50;49.90;;;;;;5055821;28;20112;-50
2021/12/30 08:15:17;;;;;;;1.10;0.63;;;21.50;49.70;;;;;;5056130;28;20391;-52
2021/12/30 08:17:45;;;;;;;0.63;0.47;;;21.60;49.70;;;;;;5055372;28;20063;-49
2021/12/30 08:20:12;;;;;;;1.45;0.70;;;21.70;49.60;;;;;;5046476;28;20044;-53
2021/12/30 08:22:39;;;;;;;0.85;0.52;;;21.80;49.50;;;;;;5054371;28;20025;-49
2021/12/30 08:25:07;;;;;;;1.52;0.80;;;21.80;49.40;;;;;;5053290;28;20107;-54
2021/12/30 08:27:34;;;;;;;0.60;0.60;;;21.90;49.30;;;;;;5052657;28;20032;-55
2021/12/30 08:29:59;;;;;;;0.75;0.70;;;22.00;49.30;;;;;;5035538;28;20086;-57
2021/12/30 08:32:25;;;;;;;1.08;0.73;;;22.00;49.20;;;;;;5054620;28;20115;-49
2021/12/30 08:34:51;;;;;;;1.02;0.60;;;22.10;49.10;;;;;;5054376;28;20032;-53
2021/12/30 08:37:17;;;;;;;1.33;0.65;;;22.10;49.00;;;;;;5037904;28;20171;-54
2021/12/30 08:39:44;;;;;;;1.00;0.60;;;22.20;49.00;;;;;;5055631;28;20082;-52
2021/12/30 08:42:22;;;;;;;0.50;0.50;;;22.30;48.80;;;;;;5056118;28;20047;-53
2021/12/30 08:44:48;;;;;;;0.85;0.47;;;22.30;48.70;;;;;;5055281;28;20037;-56
2021/12/30 08:47:16;;;;;;;1.08;0.70;;;22.40;48.70;;;;;;5056042;28;20028;-55
2021/12/30 08:49:45;;;;;;;0.65;0.50;;;22.40;48.60;;;;;;5055126;28;20451;-52
2021/12/30 08:52:15;;;;;;;0.90;0.40;;;22.50;48.60;;;;;;5055828;28;20025;-50
2021/12/30 08:54:42;;;;;;;0.43;0.40;;;22.50;48.50;;;;;;5055406;28;20033;-54
2021/12/30 08:57:08;;;;;;;0.68;0.30;;;22.60;48.40;;;;;;5054693;28;20082;-50
2021/12/30 08:59:35;;;;;;;0.60;0.43;;;22.60;48.30;;;;;;5055040;28;20466;-53
2021/12/30 09:02:03;;;;;;;5.85;0.40;;;22.70;48.20;;;;;;5055371;28;20025;-52
2021/12/30 09:04:29;;;;;;;1.00;0.45;;;22.70;48.10;;;;;;5055595;28;20131;-53
2021/12/30 09:06:55;;;;;;;0.47;0.40;;;22.70;48.10;;;;;;5054802;28;20407;-52
2021/12/30 09:09:20;;;;;;;0.77;0.40;;;22.80;48.00;;;;;;5040510;28;20310;-52
2021/12/30 09:11:46;;;;;;;1.05;0.40;;;22.80;47.90;;;;;;5055146;28;20089;-52
2021/12/30 09:14:13;;;;;;;0.88;0.30;;;22.80;47.90;;;;;;5036350;28;20040;-52
2021/12/30 09:16:43;;;;;;;0.77;0.52;;;22.90;47.90;;;;;;5054949;28;20029;-54
2021/12/30 09:19:09;;;;;;;0.77;0.40;;;22.90;47.80;;;;;;5054498;28;20033;-55
2021/12/30 09:21:39;;;;;;;0.98;0.45;;;22.90;47.80;;;;;;5055154;28;20052;-50
2021/12/30 09:24:07;;;;;;;0.82;0.50;;;22.90;47.70;;;;;;5020841;28;20028;-54
2021/12/30 09:26:32;;;;;;;1.08;0.47;;;22.90;47.70;;;;;;5054102;28;20447;-52
2021/12/30 09:28:59;;;;;;;1.67;0.60;;;22.90;47.70;;;;;;5037169;28;20032;-51
2021/12/30 09:31:25;;;;;;;0.82;0.55;;;22.90;47.70;;;;;;5054383;28;20069;-52
2021/12/30 09:33:51;;;;;;;1.33;0.60;;;22.80;47.70;;;;;;5054780;28;20028;-54
2021/12/30 09:36:16;;;;;;;1.23;0.52;;;22.80;47.70;;;;;;5054552;28;20021;-53
2021/12/30 09:38:42;;;;;;;0.77;0.47;;;22.80;47.70;;;;;;5053999;28;20020;-53
2021/12/30 09:41:08;;;;;;;0.50;0.50;;;22.80;47.70;;;;;;5054950;28;20086;-50
2021/12/30 09:43:34;;;;;;;1.08;0.50;;;22.80;47.80;;;;;;5054488;28;20028;-51
2021/12/30 09:46:01;;;;;;;1.05;0.50;;;22.70;47.80;;;;;;5054602;28;20029;-52
2021/12/30 09:48:27;;;;;;;1.95;0.70;;;22.80;47.90;;;;;;5054283;28;20036;-53
2021/12/30 09:50:54;;;;;;;2.13;0.77;;;22.70;47.80;;;;;;5054365;28;20025;-50
2021/12/30 09:53:23;;;;;;;1.45;0.63;;;22.70;47.90;;;;;;5054219;28;20017;-54
2021/12/30 09:55:52;;;;;;;1.08;0.47;;;22.70;47.90;;;;;;5054200;28;20033;-49
2021/12/30 09:58:18;;;;;;;1.70;0.70;;;22.70;48.00;;;;;;5054261;28;20036;-55
2021/12/30 10:00:46;;;;;;;1.48;0.77;;;22.70;48.00;;;;;;5037177;28;20040;-55
2021/12/30 10:03:12;;;;;;;0.80;0.60;;;22.60;48.00;;;;;;5043754;28;20052;-54
2021/12/30 10:05:40;;;;;;;1.10;0.60;;;22.60;48.00;;;;;;5050616;28;20025;-56
2021/12/30 10:08:15;;;;;;;1.42;0.60;;;22.60;48.70;;;;;;5051726;28;20456;-55
2021/12/30 10:10:44;;;;;;;0.68;0.40;;;22.60;48.10;;;;;;5053327;28;20108;-50
2021/12/30 10:13:16;;;;;;;1.40;0.60;;;22.60;48.10;;;;;;5036801;28;20098;-52
2021/12/30 10:15:44;;;;;;;1.33;0.60;;;22.60;48.20;;;;;;5048957;28;20024;-54
2021/12/30 10:18:10;;;;;;;1.40;0.57;;;22.50;48.20;;;;;;5053581;28;20444;-52
2021/12/30 10:20:39;;;;;;;2.00;0.60;;;22.50;48.20;;;;;;5054838;28;20075;-55
2021/12/30 10:23:20;;;;;;;0.98;0.55;;;22.50;48.30;;;;;;5052166;28;20368;-54
2021/12/30 10:25:49;;;;;;;0.88;0.50;;;22.50;48.20;;;;;;5040600;28;20433;-52
2021/12/30 10:28:22;;;;;;;1.17;0.52;;;22.50;48.30;;;;;;5052020;28;20416;-54
2021/12/30 10:30:51;;;;;;;2.13;0.80;;;22.50;48.30;;;;;;5040910;28;20037;-56
2021/12/30 10:33:20;;;;;;;1.55;0.82;;;22.50;48.30;;;;;;5053216;28;20066;-54
2021/12/30 10:35:47;;;;;;;1.75;0.75;;;22.50;48.30;;;;;;5055898;28;20025;-51
2021/12/30 10:38:14;;;;;;;2.13;0.77;;;22.50;48.40;;;;;;5046545;28;20184;-52
2021/12/30 10:40:43;;;;;;;1.55;0.75;;;22.40;48.30;;;;;;5038754;28;20452;-53
2021/12/30 10:43:17;;;;;;;1.63;0.70;;;22.40;48.30;;;;;;5049959;28;20036;-52
2021/12/30 10:45:43;;;;;;;2.80;0.63;;;22.50;48.40;;;;;;5055745;28;20037;-50
2021/12/30 10:48:09;;;;;;;1.58;0.80;;;22.40;48.30;;;;;;5045911;28;20029;-55
2021/12/30 10:50:35;;;;;;;1.88;0.70;;;22.40;48.30;;;;;;5047886;28;20040;-54
2021/12/30 10:53:01;;;;;;;1.60;0.70;;;22.40;48.30;;;;;;5046957;28;20021;-52
2021/12/30 10:55:27;;;;;;;1.48;0.80;;;22.40;48.30;;;;;;5051217;28;20123;-50
2021/12/30 10:57:53;;;;;;;3.00;0.80;;;22.40;48.30;;;;;;5045333;28;20025;-51
2021/12/30 11:00:25;;;;;;;2.95;0.80;;;22.40;48.30;;;;;;5037801;28;20099;-50
2021/12/30 11:02:51;;;;;;;1.20;0.70;;;22.40;48.30;;;;;;5051687;28;20070;-54
2021/12/30 11:05:18;;;;;;;0.95;0.60;;;22.40;48.30;;;;;;5056347;28;20021;-50
2021/12/30 11:07:50;;;;;;;2.10;0.77;;;22.40;48.30;;;;;;5052749;28;20471;-54
2021/12/30 11:10:38;;;;;;;1.80;0.80;;;22.40;48.30;;;;;;5056131;28;20036;-52
2021/12/30 11:13:10;;;;;;;2.33;0.90;;;22.40;48.30;;;;;;5054665;28;20025;-51
2021/12/30 11:15:37;;;;;;;2.03;0.63;;;22.40;48.30;;;;;;5052569;28;20112;-52
2021/12/30 11:18:18;;;;;;;2.88;1.08;;;22.40;48.30;;;;;;5042212;28;20029;-54
2021/12/30 11:20:47;;;;;;;2.22;0.73;;;22.40;48.30;;;;;;5040948;28;20033;-55
2021/12/30 11:23:15;;;;;;;2.03;0.80;;;22.30;48.20;;;;;;5052107;28;20032;-59
2021/12/30 11:25:42;;;;;;;1.20;0.70;;;22.40;48.30;;;;;;5052285;28;20180;-48
2021/12/30 11:28:08;;;;;;;1.80;0.60;;;22.40;48.30;;;;;;5041374;28;20035;-51
2021/12/30 11:30:34;;;;;;;1.55;0.60;;;22.30;48.20;;;;;;5041508;28;20496;-52
2021/12/30 11:33:00;;;;;;;1.65;0.80;;;22.30;48.20;;;;;;5052082;28;20017;-49
2021/12/30 11:35:27;;;;;;;3.53;0.80;;;22.30;48.20;;;;;;5055783;28;20040;-53
2021/12/30 11:37:54;;;;;;;1.52;0.75;;;22.40;48.30;;;;;;5045148;28;20036;-48
2021/12/30 11:40:24;;;;;;;1.55;0.60;;;22.40;48.40;;;;;;5035436;28;20115;-46
2021/12/30 11:43:16;;;;;;;1.65;0.82;;;22.40;48.40;;;;;;5054555;28;20325;-50
2021/12/30 11:45:43;;;;;;;4.13;0.90;;;22.40;48.40;;;;;;5048791;28;20025;-55
2021/12/30 11:48:21;;;;;;;2.05;0.88;;;22.40;48.50;;;;;;5037158;28;20447;-60
2021/12/30 11:50:48;;;;;;;2.72;0.80;;;22.50;48.60;;;;;;5045788;28;20028;-59
2021/12/30 11:53:27;;;;;;;4.63;1.20;;;22.50;48.60;;;;;;5055496;28;20420;-57
2021/12/30 11:56:00;;;;;;;2.55;0.98;;;22.60;48.60;;;;;;5049244;28;20340;-59
2021/12/30 11:58:40;;;;;;;3.03;0.90;;;22.60;48.60;;;;;;5048210;28;20052;-55
2021/12/30 12:01:12;;;;;;;3.40;1.20;;;22.60;49.20;;;;;;5043424;28;20432;-61
2021/12/30 12:03:41;;;;;;;2.03;0.98;;;22.70;48.60;;;;;;5055214;28;20471;-61
2021/12/30 12:06:31;;;;;;;1.63;0.88;;;22.70;48.50;;;;;;5042112;28;20333;-62
2021/12/30 12:09:01;;;;;;;3.20;1.08;;;22.70;48.30;;;;;;5036205;28;20033;-61
2021/12/30 12:11:42;;;;;;;1.80;1.00;;;22.80;48.30;;;;;;5031861;28;20028;-61
2021/12/30 12:14:23;;;;;;;1.55;0.93;;;22.80;48.00;;;;;;5054535;28;20120;-61
2021/12/30 12:17:00;;;;;;;2.20;1.17;;;22.90;47.80;;;;;;5054586;28;20025;-61
2021/12/30 12:19:37;;;;;;;2.60;0.90;;;22.90;47.60;;;;;;5049840;28;20048;-61
2021/12/30 12:22:07;;;;;;;1.45;0.85;;;23.00;47.50;;;;;;5037270;28;20029;-61
2021/12/30 12:24:39;;;;;;;2.80;1.20;;;23.00;47.30;;;;;;5042798;28;20036;-60
2021/12/30 12:27:11;;;;;;;3.38;1.27;;;23.10;47.40;;;;;;5052234;28;20060;-60
2021/12/30 12:29:45;;;;;;;2.53;1.23;;;23.10;47.30;;;;;;5054215;28;20028;-61
2021/12/30 12:32:33;;;;;;;2.15;1.17;;;23.10;47.10;;;;;;5041490;28;20048;-61
2021/12/30 12:35:04;;;;;;;2.75;1.60;;;23.10;47.10;;;;;;5045863;28;20068;-51
2021/12/30 12:37:33;;;;;;;2.90;1.40;;;23.10;47.10;;;;;;5052683;28;20039;-54
2021/12/30 12:40:13;;;;;;;4.55;1.52;;;23.10;47.10;;;;;;5037117;28;20040;-57
2021/12/30 12:42:51;;;;;;;2.72;1.40;;;23.10;47.00;;;;;;5035219;28;20112;-57
2021/12/30 12:45:17;;;;;;;4.88;2.20;;;23.10;46.90;;;;;;5035585;28;20034;-54
2021/12/30 12:47:43;;;;;;;3.47;2.10;;;23.10;47.00;;;;;;5035813;28;20113;-57
2021/12/30 12:50:10;;;;;;;2.78;2.10;;;23.10;46.90;;;;;;5035766;28;20028;-56
2021/12/30 12:52:47;;;;;;;4.80;2.28;;;23.10;46.90;;;;;;5035526;28;20025;-56